Airport View

Enter AWOS ICAO identifier for current METAR.

ex. KFNL

KGVT 250950Z AUTO 00000KT 4SM BR BKN011 BKN025 12/10 A2998 RMK AO2

25 Oct 2020 10:21

Frequency: 133.425

Phone: 903-455-7703

Other Area AWOS: KF46 - KSLR - KTRL - KTKI

TAF AMD KDAL 250905Z 2509/2606 12005KT P6SM SCT035 BKN250 FM251100 16011KT P6SM BKN023 TEMPO 2511/2514 BKN018 FM251600 13010KT P6SM BKN040 FM260000 09009KT P6SM BKN018 FM260200 05011KT 4SM -DZ BR OVC008